sensor_id;sensor_type;location;lat;lon;timestamp;pressure;altitude;pressure_sealevel;temperature;humidity
38716;BME280;24833;49.324;8.694;2023-04-09T00:02:03;100540.06;;;8.94;62.10
38716;BME280;24833;49.324;8.694;2023-04-09T00:04:30;100535.56;;;8.94;61.85
38716;BME280;24833;49.324;8.694;2023-04-09T00:06:57;100538.25;;;8.94;61.63
38716;BME280;24833;49.324;8.694;2023-04-09T00:09:24;100536.59;;;8.93;61.88
38716;BME280;24833;49.324;8.694;2023-04-09T00:11:51;100531.25;;;8.93;61.76
38716;BME280;24833;49.324;8.694;2023-04-09T00:14:18;100535.56;;;8.94;61.50
38716;BME280;24833;49.324;8.694;2023-04-09T00:16:45;100527.75;;;8.93;61.54
38716;BME280;24833;49.324;8.694;2023-04-09T00:19:12;100524.25;;;8.92;60.99
38716;BME280;24833;49.324;8.694;2023-04-09T00:21:39;100532.25;;;8.92;61.50
38716;BME280;24833;49.324;8.694;2023-04-09T00:24:07;100519.94;;;8.91;61.99
38716;BME280;24833;49.324;8.694;2023-04-09T00:26:34;100523.59;;;8.90;61.78
38716;BME280;24833;49.324;8.694;2023-04-09T00:29:01;100526.41;;;8.89;61.71
38716;BME280;24833;49.324;8.694;2023-04-09T00:31:28;100529.06;;;8.89;61.48
38716;BME280;24833;49.324;8.694;2023-04-09T00:33:55;100530.06;;;8.88;61.54
38716;BME280;24833;49.324;8.694;2023-04-09T00:36:22;100528.25;;;8.88;61.47
38716;BME280;24833;49.324;8.694;2023-04-09T00:38:52;100520.44;;;8.87;61.97
38716;BME280;24833;49.324;8.694;2023-04-09T00:41:20;100526.59;;;8.87;61.70
38716;BME280;24833;49.324;8.694;2023-04-09T00:43:47;100516.94;;;8.86;61.16
38716;BME280;24833;49.324;8.694;2023-04-09T00:46:14;100516.94;;;8.86;61.64
38716;BME280;24833;49.324;8.694;2023-04-09T00:48:42;100513.63;;;8.84;61.16
38716;BME280;24833;49.324;8.694;2023-04-09T00:51:09;100521.59;;;8.84;61.53
38716;BME280;24833;49.324;8.694;2023-04-09T00:53:36;100518.25;;;8.82;61.87
38716;BME280;24833;49.324;8.694;2023-04-09T00:56:03;100521.09;;;8.81;61.72
38716;BME280;24833;49.324;8.694;2023-04-09T00:58:31;100520.09;;;8.82;61.69
38716;BME280;24833;49.324;8.694;2023-04-09T01:00:58;100512.28;;;8.80;61.98
38716;BME280;24833;49.324;8.694;2023-04-09T01:03:25;100517.94;;;8.77;61.90
38716;BME280;24833;49.324;8.694;2023-04-09T01:06:07;100513.63;;;8.76;61.61
38716;BME280;24833;49.324;8.694;2023-04-09T01:09:05;100521.91;;;8.73;61.08
38716;BME280;24833;49.324;8.694;2023-04-09T01:12:09;100520.44;;;8.70;61.79
38716;BME280;24833;49.324;8.694;2023-04-09T01:14:44;100523.91;;;8.71;62.07
38716;BME280;24833;49.324;8.694;2023-04-09T01:17:30;100516.25;;;8.68;62.03
38716;BME280;24833;49.324;8.694;2023-04-09T01:20:11;100515.59;;;8.66;62.08
38716;BME280;24833;49.324;8.694;2023-04-09T01:28:46;100514.25;;;8.62;62.02
38716;BME280;24833;49.324;8.694;2023-04-09T01:31:19;100510.91;;;8.60;61.88
38716;BME280;24833;49.324;8.694;2023-04-09T01:33:47;100514.59;;;8.59;61.42
38716;BME280;24833;49.324;8.694;2023-04-09T01:36:14;100517.25;;;8.59;61.57
38716;BME280;24833;49.324;8.694;2023-04-09T01:38:42;100516.25;;;8.60;61.42
38716;BME280;24833;49.324;8.694;2023-04-09T01:41:15;100511.25;;;8.57;63.04
38716;BME280;24833;49.324;8.694;2023-04-09T01:43:43;100512.09;;;8.57;62.83
38716;BME280;24833;49.324;8.694;2023-04-09T01:46:12;100520.22;;;8.56;62.26
38716;BME280;24833;49.324;8.694;2023-04-09T01:48:39;100516.91;;;8.54;62.78
38716;BME280;24833;49.324;8.694;2023-04-09T01:51:06;100518.91;;;8.52;62.15
38716;BME280;24833;49.324;8.694;2023-04-09T01:53:33;100510.09;;;8.51;62.02
38716;BME280;24833;49.324;8.694;2023-04-09T01:56:01;100511.91;;;8.51;61.80
38716;BME280;24833;49.324;8.694;2023-04-09T01:58:29;100513.88;;;8.49;63.07
38716;BME280;24833;49.324;8.694;2023-04-09T02:01:05;100515.88;;;8.46;61.90
38716;BME280;24833;49.324;8.694;2023-04-09T02:03:43;100512.75;;;8.43;63.17
38716;BME280;24833;49.324;8.694;2023-04-09T02:06:37;100516.22;;;8.43;62.24
38716;BME280;24833;49.324;8.694;2023-04-09T02:09:08;100518.19;;;8.41;62.58
38716;BME280;24833;49.324;8.694;2023-04-09T02:11:41;100519.03;;;8.42;62.21
38716;BME280;24833;49.324;8.694;2023-04-09T02:14:09;100510.22;;;8.41;62.09
38716;BME280;24833;49.324;8.694;2023-04-09T02:16:39;100528.84;;;8.41;62.71
38716;BME280;24833;49.324;8.694;2023-04-09T02:19:06;100517.53;;;8.39;61.81
38716;BME280;24833;49.324;8.694;2023-04-09T02:21:33;100520.19;;;8.39;62.56
38716;BME280;24833;49.324;8.694;2023-04-09T02:24:00;100515.88;;;8.38;62.22
38716;BME280;24833;49.324;8.694;2023-04-09T02:26:27;100526.69;;;8.37;62.55
38716;BME280;24833;49.324;8.694;2023-04-09T02:28:54;100525.88;;;8.36;61.78
38716;BME280;24833;49.324;8.694;2023-04-09T02:31:21;100516.88;;;8.37;62.22
38716;BME280;24833;49.324;8.694;2023-04-09T02:33:50;100515.22;;;8.36;62.58
38716;BME280;24833;49.324;8.694;2023-04-09T02:36:17;100514.34;;;8.36;62.10
38716;BME280;24833;49.324;8.694;2023-04-09T02:38:44;100513.53;;;8.35;62.87
38716;BME280;24833;49.324;8.694;2023-04-09T02:41:12;100513.84;;;8.32;62.67
38716;BME280;24833;49.324;8.694;2023-04-09T02:43:39;100506.84;;;8.31;62.81
38716;BME280;24833;49.324;8.694;2023-04-09T02:46:07;100511.34;;;8.31;62.80
38716;BME280;24833;49.324;8.694;2023-04-09T02:48:35;100511.66;;;8.28;63.66
38716;BME280;24833;49.324;8.694;2023-04-09T02:51:04;100512.66;;;8.27;62.73
38716;BME280;24833;49.324;8.694;2023-04-09T02:53:32;100511.81;;;8.26;62.75
38716;BME280;24833;49.324;8.694;2023-04-09T02:55:59;100517.31;;;8.25;62.98
38716;BME280;24833;49.324;8.694;2023-04-09T02:58:26;100519.78;;;8.26;63.04
38716;BME280;24833;49.324;8.694;2023-04-09T03:00:52;100517.47;;;8.23;63.03
38716;BME280;24833;49.324;8.694;2023-04-09T03:03:20;100513.97;;;8.23;63.40
38716;BME280;24833;49.324;8.694;2023-04-09T03:05:47;100510.63;;;8.20;63.37
38716;BME280;24833;49.324;8.694;2023-04-09T03:08:14;100509.81;;;8.20;63.79
38716;BME280;24833;49.324;8.694;2023-04-09T03:10:42;100504.66;;;8.18;63.50
38716;BME280;24833;49.324;8.694;2023-04-09T03:13:09;100511.81;;;8.18;63.68
38716;BME280;24833;49.324;8.694;2023-04-09T03:15:35;100509.31;;;8.16;64.16
38716;BME280;24833;49.324;8.694;2023-04-09T03:18:03;100503.16;;;8.16;63.61
38716;BME280;24833;49.324;8.694;2023-04-09T03:20:30;100511.13;;;8.16;63.76
38716;BME280;24833;49.324;8.694;2023-04-09T03:22:57;100507.63;;;8.15;63.27
38716;BME280;24833;49.324;8.694;2023-04-09T03:25:30;100512.09;;;8.15;63.79
38716;BME280;24833;49.324;8.694;2023-04-09T03:28:00;100507.78;;;8.14;63.27
38716;BME280;24833;49.324;8.694;2023-04-09T03:30:38;100510.44;;;8.14;62.92
38716;BME280;24833;49.324;8.694;2023-04-09T03:33:05;100518.44;;;8.14;63.41
38716;BME280;24833;49.324;8.694;2023-04-09T03:35:38;100512.28;;;8.13;63.73
38716;BME280;24833;49.324;8.694;2023-04-09T03:38:05;100506.28;;;8.11;63.79
38716;BME280;24833;49.324;8.694;2023-04-09T03:40:32;100509.13;;;8.10;63.13
38716;BME280;24833;49.324;8.694;2023-04-09T03:42:59;100511.09;;;8.08;63.99
38716;BME280;24833;49.324;8.694;2023-04-09T03:45:27;100512.91;;;8.07;63.78
38716;BME280;24833;49.324;8.694;2023-04-09T03:48:06;100503.28;;;8.06;62.96
38716;BME280;24833;49.324;8.694;2023-04-09T03:50:38;100506.94;;;8.05;63.29
38716;BME280;24833;49.324;8.694;2023-04-09T03:53:08;100507.94;;;8.04;63.76
38716;BME280;24833;49.324;8.694;2023-04-09T03:55:36;100502.78;;;8.03;63.38
38716;BME280;24833;49.324;8.694;2023-04-09T03:58:08;100506.41;;;8.02;63.66
38716;BME280;24833;49.324;8.694;2023-04-09T04:00:36;100510.06;;;8.01;63.55
38716;BME280;24833;49.324;8.694;2023-04-09T04:03:29;100508.75;;;7.97;64.65
38716;BME280;24833;49.324;8.694;2023-04-09T04:06:14;100511.69;;;7.93;65.39
38716;BME280;24833;49.324;8.694;2023-04-09T04:08:53;100515.34;;;7.92;64.45
38716;BME280;24833;49.324;8.694;2023-04-09T04:11:29;100509.38;;;7.90;64.48
38716;BME280;24833;49.324;8.694;2023-04-09T04:13:56;100505.06;;;7.89;64.31
38716;BME280;24833;49.324;8.694;2023-04-09T04:16:24;100506.03;;;7.88;65.20
38716;BME280;24833;49.324;8.694;2023-04-09T04:18:52;100501.88;;;7.86;64.38
38716;BME280;24833;49.324;8.694;2023-04-09T04:21:20;100504.69;;;7.84;64.56
38716;BME280;24833;49.324;8.694;2023-04-09T04:23:54;100512.84;;;7.83;64.81
38716;BME280;24833;49.324;8.694;2023-04-09T04:26:25;100507.81;;;7.80;65.02
38716;BME280;24833;49.324;8.694;2023-04-09T04:28:52;100503.50;;;7.79;65.64
38716;BME280;24833;49.324;8.694;2023-04-09T04:31:46;100506.31;;;7.77;65.50
38716;BME280;24833;49.324;8.694;2023-04-09T04:34:16;100510.94;;;7.75;64.58
38716;BME280;24833;49.324;8.694;2023-04-09T04:36:46;100512.94;;;7.73;64.24
38716;BME280;24833;49.324;8.694;2023-04-09T04:39:14;100510.63;;;7.70;65.52
38716;BME280;24833;49.324;8.694;2023-04-09T04:41:49;100511.75;;;7.68;65.32
38716;BME280;24833;49.324;8.694;2023-04-09T04:44:22;100514.41;;;7.68;65.28
38716;BME280;24833;49.324;8.694;2023-04-09T04:46:55;100509.41;;;7.64;65.77
38716;BME280;24833;49.324;8.694;2023-04-09T04:49:23;100515.88;;;7.62;65.30
38716;BME280;24833;49.324;8.694;2023-04-09T04:51:50;100516.19;;;7.59;65.12
38716;BME280;24833;49.324;8.694;2023-04-09T04:54:17;100511.22;;;7.56;66.05
38716;BME280;24833;49.324;8.694;2023-04-09T04:56:49;100519.47;;;7.53;65.21
38716;BME280;24833;49.324;8.694;2023-04-09T04:59:29;100508.19;;;7.51;65.42
38716;BME280;24833;49.324;8.694;2023-04-09T05:02:00;100527.78;;;7.50;65.37
38716;BME280;24833;49.324;8.694;2023-04-09T05:04:32;100520.94;;;7.47;65.84
38716;BME280;24833;49.324;8.694;2023-04-09T05:06:59;100522.91;;;7.45;65.08
38716;BME280;24833;49.324;8.694;2023-04-09T05:09:26;100524.75;;;7.45;65.16
38716;BME280;24833;49.324;8.694;2023-04-09T05:12:04;100529.41;;;7.43;65.28
38716;BME280;24833;49.324;8.694;2023-04-09T05:14:31;100527.88;;;7.40;65.49
38716;BME280;24833;49.324;8.694;2023-04-09T05:16:58;100524.38;;;7.40;65.50
38716;BME280;24833;49.324;8.694;2023-04-09T05:19:31;100525.38;;;7.38;66.04
38716;BME280;24833;49.324;8.694;2023-04-09T05:22:01;100528.03;;;7.38;65.22
38716;BME280;24833;49.324;8.694;2023-04-09T05:24:28;100525.38;;;7.38;65.12
38716;BME280;24833;49.324;8.694;2023-04-09T05:26:55;100527.38;;;7.36;66.04
38716;BME280;24833;49.324;8.694;2023-04-09T05:29:23;100529.03;;;7.37;65.02
38716;BME280;24833;49.324;8.694;2023-04-09T05:31:50;100529.03;;;7.37;64.70
38716;BME280;24833;49.324;8.694;2023-04-09T05:34:31;100530.16;;;7.35;64.91
38716;BME280;24833;49.324;8.694;2023-04-09T05:36:58;100527.50;;;7.35;65.66
38716;BME280;24833;49.324;8.694;2023-04-09T05:39:30;100524.84;;;7.35;66.94
38716;BME280;24833;49.324;8.694;2023-04-09T05:41:59;100526.53;;;7.36;66.19
38716;BME280;24833;49.324;8.694;2023-04-09T05:44:31;100530.97;;;7.35;65.61
38716;BME280;24833;49.324;8.694;2023-04-09T05:47:06;100530.69;;;7.38;66.37
38716;BME280;24833;49.324;8.694;2023-04-09T05:49:42;100533.19;;;7.40;65.71
38716;BME280;24833;49.324;8.694;2023-04-09T05:52:14;100534.72;;;7.43;66.74
38716;BME280;24833;49.324;8.694;2023-04-09T05:54:42;100538.03;;;7.45;66.10
38716;BME280;24833;49.324;8.694;2023-04-09T05:57:11;100532.25;;;7.49;65.69
38716;BME280;24833;49.324;8.694;2023-04-09T05:59:41;100535.41;;;7.53;65.80
38716;BME280;24833;49.324;8.694;2023-04-09T06:02:08;100532.47;;;7.56;66.62
38716;BME280;24833;49.324;8.694;2023-04-09T06:04:35;100532.13;;;7.59;66.31
38716;BME280;24833;49.324;8.694;2023-04-09T06:07:02;100535.34;;;7.62;67.33
38716;BME280;24833;49.324;8.694;2023-04-09T06:09:29;100537.66;;;7.65;66.72
38716;BME280;24833;49.324;8.694;2023-04-09T06:11:56;100533.72;;;7.70;66.21
38716;BME280;24833;49.324;8.694;2023-04-09T06:14:24;100533.22;;;7.74;67.21
38716;BME280;24833;49.324;8.694;2023-04-09T06:16:51;100546.22;;;7.77;67.10
38716;BME280;24833;49.324;8.694;2023-04-09T06:19:18;100537.91;;;7.80;67.06
38716;BME280;24833;49.324;8.694;2023-04-09T06:21:45;100547.25;;;7.84;67.58
38716;BME280;24833;49.324;8.694;2023-04-09T06:24:12;100537.25;;;7.86;67.48
38716;BME280;24833;49.324;8.694;2023-04-09T06:26:39;100542.94;;;7.91;67.25
38716;BME280;24833;49.324;8.694;2023-04-09T06:29:06;100547.78;;;7.96;67.65
38716;BME280;24833;49.324;8.694;2023-04-09T06:31:33;100542.31;;;7.98;67.96
38716;BME280;24833;49.324;8.694;2023-04-09T06:34:00;100543.63;;;8.02;67.48
38716;BME280;24833;49.324;8.694;2023-04-09T06:36:27;100551.31;;;8.05;67.37
38716;BME280;24833;49.324;8.694;2023-04-09T06:38:54;100551.81;;;8.08;67.17
38716;BME280;24833;49.324;8.694;2023-04-09T06:41:22;100552.19;;;8.13;68.02
38716;BME280;24833;49.324;8.694;2023-04-09T06:43:49;100551.03;;;8.16;67.50
38716;BME280;24833;49.324;8.694;2023-04-09T06:46:17;100551.53;;;8.19;67.97
38716;BME280;24833;49.324;8.694;2023-04-09T06:48:46;100557.38;;;8.23;67.29
38716;BME280;24833;49.324;8.694;2023-04-09T06:51:13;100560.38;;;8.28;67.75
38716;BME280;24833;49.324;8.694;2023-04-09T06:53:41;100560.06;;;8.31;67.74
38716;BME280;24833;49.324;8.694;2023-04-09T06:56:08;100561.41;;;8.35;67.60
38716;BME280;24833;49.324;8.694;2023-04-09T06:58:35;100557.47;;;8.39;67.46
38716;BME280;24833;49.324;8.694;2023-04-09T07:01:02;100558.63;;;8.45;68.15
38716;BME280;24833;49.324;8.694;2023-04-09T07:03:29;100562.50;;;8.51;67.80
38716;BME280;24833;49.324;8.694;2023-04-09T07:05:57;100564.63;;;8.55;68.15
38716;BME280;24833;49.324;8.694;2023-04-09T07:08:24;100560.66;;;8.59;68.60
38716;BME280;24833;49.324;8.694;2023-04-09T07:10:52;100560.19;;;8.64;68.29
38716;BME280;24833;49.324;8.694;2023-04-09T07:13:19;100560.69;;;8.67;68.11
38716;BME280;24833;49.324;8.694;2023-04-09T07:15:46;100558.38;;;8.72;68.15
38716;BME280;24833;49.324;8.694;2023-04-09T07:18:13;100553.88;;;8.81;68.16
38716;BME280;24833;49.324;8.694;2023-04-09T07:20:40;100562.88;;;8.88;67.81
38716;BME280;24833;49.324;8.694;2023-04-09T07:23:07;100557.72;;;8.95;68.10
38716;BME280;24833;49.324;8.694;2023-04-09T07:25:34;100568.72;;;9.00;67.90
38716;BME280;24833;49.324;8.694;2023-04-09T07:28:01;100569.06;;;9.05;68.18
38716;BME280;24833;49.324;8.694;2023-04-09T07:30:28;100567.56;;;9.11;68.00
38716;BME280;24833;49.324;8.694;2023-04-09T07:32:55;100568.88;;;9.15;67.60
38716;BME280;24833;49.324;8.694;2023-04-09T07:35:22;100566.56;;;9.20;67.52
38716;BME280;24833;49.324;8.694;2023-04-09T07:37:49;100574.06;;;9.24;67.60
38716;BME280;24833;49.324;8.694;2023-04-09T07:40:16;100558.56;;;9.28;67.84
38716;BME280;24833;49.324;8.694;2023-04-09T07:42:43;100558.22;;;9.31;67.60
38716;BME280;24833;49.324;8.694;2023-04-09T07:45:10;100562.91;;;9.37;67.43
38716;BME280;24833;49.324;8.694;2023-04-09T07:47:39;100566.69;;;9.43;67.59
38716;BME280;24833;49.324;8.694;2023-04-09T07:50:07;100566.84;;;9.49;67.87
38716;BME280;24833;49.324;8.694;2023-04-09T07:52:34;100575.19;;;9.54;67.66
38716;BME280;24833;49.324;8.694;2023-04-09T07:55:02;100566.88;;;9.58;67.55
38716;BME280;24833;49.324;8.694;2023-04-09T07:57:32;100566.50;;;9.61;67.76
38716;BME280;24833;49.324;8.694;2023-04-09T07:59:59;100576.84;;;9.64;68.32
38716;BME280;24833;49.324;8.694;2023-04-09T08:03:10;100575.19;;;9.71;67.64
38716;BME280;24833;49.324;8.694;2023-04-09T08:05:37;100572.81;;;9.76;67.59
38716;BME280;24833;49.324;8.694;2023-04-09T08:08:05;100579.47;;;9.80;68.00
38716;BME280;24833;49.324;8.694;2023-04-09T08:10:32;100587.16;;;9.83;68.19
38716;BME280;24833;49.324;8.694;2023-04-09T08:12:59;100587.97;;;9.92;67.95
38716;BME280;24833;49.324;8.694;2023-04-09T08:15:26;100584.25;;;10.01;67.84
38716;BME280;24833;49.324;8.694;2023-04-09T08:17:53;100584.72;;;10.13;68.16
38716;BME280;24833;49.324;8.694;2023-04-09T08:20:20;100587.72;;;10.26;68.36
38716;BME280;24833;49.324;8.694;2023-04-09T08:22:48;100593.97;;;10.41;68.31
38716;BME280;24833;49.324;8.694;2023-04-09T08:25:15;100594.75;;;10.58;68.50
38716;BME280;24833;49.324;8.694;2023-04-09T08:27:41;100594.81;;;10.73;68.13
38716;BME280;24833;49.324;8.694;2023-04-09T08:30:09;100598.94;;;10.83;67.80
38716;BME280;24833;49.324;8.694;2023-04-09T08:32:36;100595.00;;;10.94;67.43
38716;BME280;24833;49.324;8.694;2023-04-09T08:35:04;100594.59;;;11.05;67.78
38716;BME280;24833;49.324;8.694;2023-04-09T08:37:31;100597.84;;;11.15;67.05
38716;BME280;24833;49.324;8.694;2023-04-09T08:39:58;100594.97;;;11.25;67.29
38716;BME280;24833;49.324;8.694;2023-04-09T08:42:26;100592.03;;;11.35;67.12
38716;BME280;24833;49.324;8.694;2023-04-09T08:44:54;100608.84;;;11.43;66.19
38716;BME280;24833;49.324;8.694;2023-04-09T08:47:21;100602.22;;;11.54;66.71
38716;BME280;24833;49.324;8.694;2023-04-09T08:49:49;100607.50;;;11.62;66.57
38716;BME280;24833;49.324;8.694;2023-04-09T08:52:17;100601.41;;;11.68;65.09
38716;BME280;24833;49.324;8.694;2023-04-09T08:54:48;100610.75;;;11.72;64.11
38716;BME280;24833;49.324;8.694;2023-04-09T08:57:16;100597.00;;;11.76;64.56
38716;BME280;24833;49.324;8.694;2023-04-09T08:59:43;100604.47;;;11.80;64.05
38716;BME280;24833;49.324;8.694;2023-04-09T09:02:10;100603.97;;;11.85;63.71
38716;BME280;24833;49.324;8.694;2023-04-09T09:04:48;100603.06;;;11.92;63.29
38716;BME280;24833;49.324;8.694;2023-04-09T09:07:16;100603.78;;;12.01;64.88
38716;BME280;24833;49.324;8.694;2023-04-09T09:12:39;100602.31;;;12.13;62.57
38716;BME280;24833;49.324;8.694;2023-04-09T09:15:27;100602.84;;;12.23;62.32
38716;BME280;24833;49.324;8.694;2023-04-09T09:17:57;100594.75;;;12.32;62.66
38716;BME280;24833;49.324;8.694;2023-04-09T09:20:25;100600.81;;;12.40;62.51
38716;BME280;24833;49.324;8.694;2023-04-09T09:22:54;100607.38;;;12.52;63.77
38716;BME280;24833;49.324;8.694;2023-04-09T09:25:22;100602.91;;;12.60;63.62
38716;BME280;24833;49.324;8.694;2023-04-09T09:27:52;100607.31;;;12.67;62.46
38716;BME280;24833;49.324;8.694;2023-04-09T09:30:22;100603.91;;;12.73;61.97
38716;BME280;24833;49.324;8.694;2023-04-09T09:32:53;100611.38;;;12.78;60.00
38716;BME280;24833;49.324;8.694;2023-04-09T09:35:30;100603.97;;;12.80;58.26
38716;BME280;24833;49.324;8.694;2023-04-09T09:38:03;100605.56;;;12.74;57.10
38716;BME280;24833;49.324;8.694;2023-04-09T09:40:30;100600.94;;;12.68;58.02
38716;BME280;24833;49.324;8.694;2023-04-09T09:42:57;100601.22;;;12.73;60.61
38716;BME280;24833;49.324;8.694;2023-04-09T09:45:24;100600.75;;;12.70;60.33
38716;BME280;24833;49.324;8.694;2023-04-09T09:47:52;100606.31;;;12.68;59.29
38716;BME280;24833;49.324;8.694;2023-04-09T09:50:23;100607.97;;;12.69;58.87
38716;BME280;24833;49.324;8.694;2023-04-09T09:53:01;100607.22;;;12.75;60.59
38716;BME280;24833;49.324;8.694;2023-04-09T09:55:31;100596.75;;;12.80;59.49
38716;BME280;24833;49.324;8.694;2023-04-09T09:58:02;100600.72;;;12.85;59.68
38716;BME280;24833;49.324;8.694;2023-04-09T10:00:32;100594.00;;;12.74;57.54
38716;BME280;24833;49.324;8.694;2023-04-09T10:03:15;100603.63;;;12.68;58.95
38716;BME280;24833;49.324;8.694;2023-04-09T10:05:48;100592.91;;;12.68;59.24
38716;BME280;24833;49.324;8.694;2023-04-09T10:08:15;100596.13;;;12.78;60.22
38716;BME280;24833;49.324;8.694;2023-04-09T10:10:44;100593.81;;;12.75;57.95
38716;BME280;24833;49.324;8.694;2023-04-09T10:13:24;100594.91;;;12.81;60.20
38716;BME280;24833;49.324;8.694;2023-04-09T10:15:53;100596.81;;;12.87;58.77
38716;BME280;24833;49.324;8.694;2023-04-09T10:18:20;100592.56;;;12.93;58.56
38716;BME280;24833;49.324;8.694;2023-04-09T10:23:38;100586.03;;;13.02;59.23
38716;BME280;24833;49.324;8.694;2023-04-09T10:26:06;100589.75;;;13.01;57.31
38716;BME280;24833;49.324;8.694;2023-04-09T10:28:33;100574.19;;;13.11;58.91
38716;BME280;24833;49.324;8.694;2023-04-09T10:31:06;100575.25;;;13.17;56.78
38716;BME280;24833;49.324;8.694;2023-04-09T10:33:37;100572.28;;;13.26;57.88
38716;BME280;24833;49.324;8.694;2023-04-09T10:36:10;100582.19;;;13.26;53.72
38716;BME280;24833;49.324;8.694;2023-04-09T10:38:44;100572.28;;;13.26;55.44
38716;BME280;24833;49.324;8.694;2023-04-09T10:41:22;100575.03;;;13.33;55.86
38716;BME280;24833;49.324;8.694;2023-04-09T10:43:50;100575.72;;;13.42;56.00
38716;BME280;24833;49.324;8.694;2023-04-09T10:46:34;100560.94;;;13.52;57.07
38716;BME280;24833;49.324;8.694;2023-04-09T10:49:19;100559.34;;;13.58;57.95
38716;BME280;24833;49.324;8.694;2023-04-09T10:52:04;100552.38;;;13.70;59.41
38716;BME280;24833;49.324;8.694;2023-04-09T10:59:42;100556.50;;;14.01;59.68
38716;BME280;24833;49.324;8.694;2023-04-09T11:07:48;100551.84;;;14.23;59.04
38716;BME280;24833;49.324;8.694;2023-04-09T11:10:19;100549.97;;;14.23;56.73
38716;BME280;24833;49.324;8.694;2023-04-09T11:12:47;100541.91;;;14.23;58.49
38716;BME280;24833;49.324;8.694;2023-04-09T11:15:19;100549.81;;;14.25;59.29
38716;BME280;24833;49.324;8.694;2023-04-09T11:17:47;100545.66;;;14.22;58.26
38716;BME280;24833;49.324;8.694;2023-04-09T11:20:23;100544.22;;;14.26;58.76
38716;BME280;24833;49.324;8.694;2023-04-09T11:22:54;100539.44;;;14.22;56.44
38716;BME280;24833;49.324;8.694;2023-04-09T11:25:26;100540.47;;;14.21;57.33
38716;BME280;24833;49.324;8.694;2023-04-09T11:27:54;100541.06;;;14.16;56.91
38716;BME280;24833;49.324;8.694;2023-04-09T11:30:21;100541.31;;;14.21;57.14
38716;BME280;24833;49.324;8.694;2023-04-09T11:32:49;100540.91;;;14.31;57.63
38716;BME280;24833;49.324;8.694;2023-04-09T11:35:19;100545.25;;;14.25;52.10
38716;BME280;24833;49.324;8.694;2023-04-09T11:37:48;100543.34;;;14.12;50.90
38716;BME280;24833;49.324;8.694;2023-04-09T11:40:25;100534.81;;;14.02;50.90
38716;BME280;24833;49.324;8.694;2023-04-09T11:42:53;100541.38;;;13.93;50.53
38716;BME280;24833;49.324;8.694;2023-04-09T11:45:24;100537.03;;;13.92;52.11
38716;BME280;24833;49.324;8.694;2023-04-09T11:47:52;100543.84;;;13.95;50.67
38716;BME280;24833;49.324;8.694;2023-04-09T11:50:20;100535.81;;;13.95;51.55
38716;BME280;24833;49.324;8.694;2023-04-09T11:52:48;100531.72;;;13.99;51.04
38716;BME280;24833;49.324;8.694;2023-04-09T11:57:54;100531.91;;;14.04;51.70
38716;BME280;24833;49.324;8.694;2023-04-09T12:00:23;100533.03;;;14.23;54.13
38716;BME280;24833;49.324;8.694;2023-04-09T12:03:02;100535.38;;;14.32;49.68
38716;BME280;24833;49.324;8.694;2023-04-09T12:05:34;100527.63;;;14.64;54.87
38716;BME280;24833;49.324;8.694;2023-04-09T12:08:07;100530.19;;;15.12;55.69
38716;BME280;24833;49.324;8.694;2023-04-09T12:10:36;100523.56;;;15.34;50.26
38716;BME280;24833;49.324;8.694;2023-04-09T12:13:08;100524.78;;;15.51;52.11
38716;BME280;24833;49.324;8.694;2023-04-09T12:15:41;100529.31;;;15.58;49.93
38716;BME280;24833;49.324;8.694;2023-04-09T12:18:12;100530.56;;;15.55;49.41
38716;BME280;24833;49.324;8.694;2023-04-09T12:20:42;100533.88;;;15.37;48.96
38716;BME280;24833;49.324;8.694;2023-04-09T12:23:12;100531.41;;;15.16;47.51
38716;BME280;24833;49.324;8.694;2023-04-09T12:25:42;100530.81;;;15.14;49.50
38716;BME280;24833;49.324;8.694;2023-04-09T12:28:12;100516.31;;;15.02;46.94
38716;BME280;24833;49.324;8.694;2023-04-09T12:30:44;100526.84;;;15.03;47.05
38716;BME280;24833;49.324;8.694;2023-04-09T12:33:12;100521.28;;;15.11;48.10
38716;BME280;24833;49.324;8.694;2023-04-09T12:35:39;100510.72;;;15.36;49.00
38716;BME280;24833;49.324;8.694;2023-04-09T12:38:06;100506.16;;;15.43;45.35
38716;BME280;24833;49.324;8.694;2023-04-09T12:40:34;100505.91;;;15.71;50.18
38716;BME280;24833;49.324;8.694;2023-04-09T12:43:02;100499.78;;;16.09;51.87
38716;BME280;24833;49.324;8.694;2023-04-09T12:45:29;100501.25;;;16.50;51.26
38716;BME280;24833;49.324;8.694;2023-04-09T12:47:57;100503.16;;;16.81;48.00
38716;BME280;24833;49.324;8.694;2023-04-09T12:50:24;100501.63;;;17.16;52.11
38716;BME280;24833;49.324;8.694;2023-04-09T12:52:51;100500.97;;;17.46;50.43
38716;BME280;24833;49.324;8.694;2023-04-09T12:55:18;100506.50;;;17.51;47.04
38716;BME280;24833;49.324;8.694;2023-04-09T12:57:48;100495.94;;;17.50;47.83
38716;BME280;24833;49.324;8.694;2023-04-09T13:00:15;100491.16;;;17.70;47.90
38716;BME280;24833;49.324;8.694;2023-04-09T13:02:42;100491.63;;;17.85;47.68
38716;BME280;24833;49.324;8.694;2023-04-09T13:05:09;100493.50;;;17.85;46.95
38716;BME280;24833;49.324;8.694;2023-04-09T13:07:36;100474.00;;;18.01;46.71
38716;BME280;24833;49.324;8.694;2023-04-09T13:10:04;100481.88;;;18.03;46.04
38716;BME280;24833;49.324;8.694;2023-04-09T13:12:31;100471.66;;;18.05;47.04
38716;BME280;24833;49.324;8.694;2023-04-09T13:14:58;100476.06;;;18.17;46.09
38716;BME280;24833;49.324;8.694;2023-04-09T13:17:25;100480.88;;;18.15;44.71
38716;BME280;24833;49.324;8.694;2023-04-09T13:19:52;100474.97;;;18.37;47.60
38716;BME280;24833;49.324;8.694;2023-04-09T13:22:19;100471.63;;;18.53;48.29
38716;BME280;24833;49.324;8.694;2023-04-09T13:24:46;100463.78;;;18.63;46.99
38716;BME280;24833;49.324;8.694;2023-04-09T13:27:13;100468.56;;;18.80;46.75
38716;BME280;24833;49.324;8.694;2023-04-09T13:29:40;100468.47;;;18.86;46.91
38716;BME280;24833;49.324;8.694;2023-04-09T13:32:07;100475.63;;;18.81;43.88
38716;BME280;24833;49.324;8.694;2023-04-09T13:34:38;100473.78;;;18.63;44.16